Data for 02/16/2017

Time Sea-Level Adjusted Pressure Absolute Pressure Temperature Relative Humidity Dew Point   
(mb) (inHg) (mb) (inHg) (C) (F) (%) (C) (F)
00:05 1014 29.94 843 24.89 5.4 41.7 30 -10.9 12.4
00:10 1014 29.94 843 24.89 5 41 31 -10.7 12.7
00:15 1014 29.94 843 24.89 4.5 40.1 32 -10.9 12.5
00:20 1014 29.94 843 24.89 4.6 40.3 31 -11.3 11.7
00:25 1014 29.94 843 24.89 4.7 40.4 33 -10.3 13.5
00:30 1014 29.94 843 24.89 4.1 39.4 33 -10.6 12.9
00:35 1014 29.94 843 24.89 4.3 39.8 31 -11.2 11.8
00:40 1014 29.94 843 24.89 4.1 39.4 35 -10.1 13.9
00:45 1014 29.94 843 24.89 3.7 38.6 35 -10.5 13.1
00:50 1014 29.94 843 24.89 4.1 39.4 32 -11.1 12
00:55 1014 29.94 843 24.89 4.5 40 32 -10.9 12.4
01:00 1014 29.94 843 24.89 4 39.2 34 -10.5 13.1
01:05 1013 29.91 843 24.89 3.7 38.6 34 -10.8 12.5
01:10 1014 29.94 843 24.89 3.8 38.9 33 -10.9 12.4
01:15 1014 29.94 843 24.89 3.9 38.9 35 -10.2 13.7
01:20 1014 29.94 843 24.89 3.4 38.1 35 -10.8 12.6
01:25 1014 29.94 843 24.89 3.9 39 34 -10.7 12.7
01:30 1014 29.94 843 24.89 4.1 39.4 31 -11.4 11.5
01:35 1014 29.94 843 24.89 4.6 40.2 34 -10.1 13.9
01:40 1014 29.94 843 24.89 3.8 38.8 34 -10.7 12.7
01:45 1013 29.91 843 24.89 3.5 38.3 34 -11 12.2
01:50 1013 29.91 843 24.89 3.8 38.9 34 -10.7 12.7
01:55 1013 29.91 843 24.89 3.6 38.5 34 -11 12.2
02:00 1013 29.91 843 24.89 3.6 38.5 35 -10.6 12.9
02:05 1013 29.91 842 24.86 3.6 38.4 34 -11.1 12.1
02:10 1013 29.91 842 24.86 3.7 38.7 32 -11.4 11.6
02:15 1013 29.91 842 24.86 4.3 39.7 32 -11.1 11.9
02:20 1013 29.91 842 24.86 4.4 39.9 32 -11.1 12.1
02:25 1013 29.91 842 24.86 4.5 40.1 31 -11.2 11.9
02:30 1013 29.91 842 24.86 4.5 40.2 31 -11.3 11.7
02:35 1013 29.91 842 24.86 4.6 40.3 31 -11.1 12
02:40 1013 29.91 842 24.86 4.8 40.7 29 -11.7 11
02:45 1013 29.91 842 24.86 5.5 41.9 28 -11.8 10.8
02:50 1013 29.91 842 24.86 5.6 42.1 30 -10.8 12.5
02:55 1013 29.91 842 24.86 5.1 41.3 31 -10.5 13.1
03:00 1013 29.91 842 24.86 4.4 39.9 33 -10.4 13.3
03:05 1013 29.91 842 24.86 3.8 38.8 35 -10.2 13.6
03:10 1013 29.91 842 24.86 3.9 39 33 -11 12.1
03:15 1013 29.91 842 24.86 3.8 38.8 35 -10.4 13.3
03:20 1013 29.91 842 24.86 3.6 38.4 33 -11.1 12
03:25 1013 29.91 842 24.86 3.7 38.7 33 -11 12.2
03:30 1012 29.88 842 24.86 4.1 39.3 33 -10.8 12.6
03:35 1013 29.91 842 24.86 4.1 39.4 36 -9.6 14.8
03:40 1012 29.88 842 24.86 3.6 38.5 35 -10.3 13.4
03:45 1012 29.88 841 24.83 3.6 38.4 35 -10.7 12.7
03:50 1012 29.88 841 24.83 4.4 39.8 30 -11.6 11.1
03:55 1012 29.88 841 24.83 5.6 42 31 -10.5 13.2
04:00 1012 29.88 841 24.83 4.5 40.1 33 -10.3 13.4
04:05 1012 29.88 841 24.83 3.6 38.4 35 -10.4 13.2
04:10 1011 29.85 841 24.83 3.9 39 32 -11.3 11.7
04:15 1011 29.85 840 24.81 4.6 40.2 32 -10.7 12.7
04:20 1011 29.85 840 24.81 4.4 40 32 -10.8 12.6
04:25 1011 29.85 840 24.81 4.4 39.9 32 -10.8 12.6
04:30 1011 29.85 840 24.81 4.5 40 31 -11.1 12
04:35 1011 29.85 840 24.81 4.8 40.6 30 -11.4 11.4
04:40 1011 29.85 840 24.81 5.2 41.4 31 -10.6 12.9
04:45 1011 29.85 840 24.81 4.7 40.5 33 -10.2 13.6
04:50 1011 29.85 840 24.81 4.5 40.2 29 -11.9 10.6
04:55 1011 29.85 840 24.81 5.6 42.1 29 -11 12.3
05:00 1011 29.85 840 24.81 6 42.7 29 -10.9 12.3
05:05 1011 29.85 840 24.81 5.7 42.3 30 -10.6 12.9
05:10 1011 29.85 840 24.81 5.8 42.4 31 -10.3 13.5
05:15 1011 29.85 840 24.81 5.6 42 31 -10.4 13.3
05:20 1011 29.85 840 24.81 5.9 42.5 30 -10.5 13.1
05:25 1011 29.85 840 24.81 5.6 42 32 -10 13.9
05:30 1011 29.85 840 24.81 5.5 41.9 31 -10.2 13.7
05:35 1011 29.85 840 24.81 5.9 42.7 33 -9.3 15.2
05:40 1011 29.85 840 24.81 6.5 43.6 33 -8.8 16.2
05:45 1011 29.85 840 24.81 6.7 44 33 -8.5 16.7
05:50 1011 29.85 840 24.81 6.5 43.7 36 -7.7 18.2
05:55 1011 29.85 840 24.81 5.5 41.8 38 -7.8 18
06:00 1011 29.85 840 24.81 5.3 41.5 35 -8.8 16.1
06:05 1010 29.83 840 24.81 4.7 40.4 36 -9 15.7
06:10 1010 29.83 840 24.81 4.8 40.6 34 -9.8 14.4
06:15 1010 29.83 840 24.81 4.8 40.7 35 -9.5 14.8
06:20 1010 29.83 840 24.81 4.9 40.7 34 -9.6 14.7
06:25 1011 29.85 840 24.81 4.7 40.5 36 -9.1 15.6
06:30 1010 29.83 840 24.81 4.6 40.3 35 -9.4 15
06:35 1010 29.83 840 24.81 4.7 40.5 36 -9.2 15.5
06:40 1010 29.83 840 24.81 4.7 40.4 36 -9.1 15.6
06:45 1010 29.83 839 24.78 4.7 40.5 36 -9.2 15.5
06:50 1010 29.83 839 24.78 4.8 40.7 35 -9.2 15.4
06:55 1010 29.83 839 24.78 5.3 41.5 34 -9.4 15.1
07:00 1010 29.83 839 24.78 5.8 42.5 33 -9.2 15.5
07:05 1010 29.83 839 24.78 5.6 42 35 -8.7 16.3
07:10 1010 29.83 839 24.78 4.7 40.5 37 -8.6 16.5
07:15 1010 29.83 839 24.78 4.7 40.5 36 -9 15.7
07:20 1010 29.83 839 24.78 5 41 36 -9 15.8
07:25 1010 29.83 839 24.78 5.2 41.3 36 -8.9 16
07:30 1010 29.83 839 24.78 5.2 41.4 36 -8.5 16.7
07:35 1010 29.83 839 24.78 5.1 41.2 36 -8.7 16.4
07:40 1010 29.83 839 24.78 4.9 40.8 38 -8.4 16.9
07:45 1010 29.83 839 24.78 4.8 40.6 38 -8.5 16.7
07:50 1010 29.83 839 24.78 4.7 40.5 38 -8.5 16.7
07:55 1010 29.83 839 24.78 4.9 40.8 38 -8.4 16.9
08:00 1009 29.8 839 24.78 4.6 40.3 40 -7.8 17.9
08:05 1009 29.8 838 24.75 3.9 39 42 -7.9 17.8
08:10 1009 29.8 838 24.75 3.9 39 42 -7.9 17.7
08:15 1009 29.8 838 24.75 4 39.2 42 -7.9 17.8
08:20 1009 29.8 838 24.75 4.3 39.7 41 -8 17.6
08:25 1009 29.8 838 24.75 5 41 38 -8.3 17.1
08:30 1009 29.8 838 24.75 5.9 42.6 35 -8.5 16.7
08:35 1009 29.8 838 24.75 6.4 43.6 34 -8.3 17.1
08:40 1009 29.8 838 24.75 6.7 44.1 36 -7.4 18.7
08:45 1009 29.8 838 24.75 5.7 42.2 37 -7.8 18
08:50 1009 29.8 838 24.75 5.4 41.8 38 -7.8 18
08:55 1009 29.8 838 24.75 5.2 41.4 39 -7.7 18.1
09:00 1009 29.8 838 24.75 5.7 42.3 36 -8 17.5
09:05 1009 29.8 838 24.75 6.1 43 37 -7.6 18.3
09:10 1009 29.8 838 24.75 6.4 43.6 35 -7.8 17.9
09:15 1009 29.8 838 24.75 6.9 44.3 36 -7 19.4
09:20 1009 29.8 838 24.75 6.4 43.6 36 -7.4 18.6
09:25 1008 29.77 838 24.75 6.9 44.4 36 -7 19.4
09:30 1008 29.77 838 24.75 7.1 44.8 34 -7.6 18.2
09:35 1008 29.77 838 24.75 7.7 45.8 33 -7.7 18.2
09:40 1008 29.77 838 24.75 8.4 47 33 -7.1 19.2
09:45 1008 29.77 838 24.75 8 46.5 33 -7.2 19
09:50 1008 29.77 838 24.75 7.8 46.1 35 -6.8 19.8
09:55 1009 29.8 838 24.75 7.9 46.2 35 -6.7 20
10:00 1009 29.8 838 24.75 8 46.3 34 -7.1 19.3
10:05 1009 29.8 838 24.75 7.9 46.3 34 -6.8 19.8
10:10 1009 29.8 838 24.75 7.8 46.1 36 -6.2 20.9
10:15 1009 29.8 838 24.75 7.8 46 34 -7.2 19.1
10:20 1009 29.8 838 24.75 7.8 46.1 34 -7 19.5
10:25 1009 29.8 838 24.75 7.4 45.3 36 -6.6 20.1
10:30 1009 29.8 838 24.75 7.2 44.9 37 -6.6 20.1
10:35 1009 29.8 838 24.75 7.5 45.4 36 -6.5 20.2
10:40 1009 29.8 838 24.75 7.8 46 34 -7.1 19.2
10:45 1009 29.8 838 24.75 8.2 46.7 33 -7 19.3
10:50 1008 29.77 838 24.75 8.5 47.3 33 -6.7 20
10:55 1008 29.77 837 24.72 8.7 47.7 32 -7.1 19.3
11:00 1008 29.77 837 24.72 8.8 47.8 32 -7.2 19.1
11:05 1008 29.77 837 24.72 8.9 48.1 32 -6.9 19.6
11:10 1008 29.77 837 24.72 9 48.2 32 -6.9 19.5
11:15 1008 29.77 837 24.72 9.2 48.6 32 -6.7 19.9
11:20 1008 29.77 837 24.72 9.3 48.7 32 -6.6 20.2
11:25 1008 29.77 837 24.72 9.3 48.7 32 -6.7 19.9
11:30 1008 29.77 837 24.72 9.3 48.8 31 -6.9 19.5
11:35 1008 29.77 837 24.72 9.5 49 31 -6.8 19.8
11:40 1008 29.77 837 24.72 9.5 49 32 -6.4 20.5
11:45 1008 29.77 837 24.72 9.4 49 31 -7 19.5
11:50 1008 29.77 837 24.72 9.1 48.5 31 -7.2 19.1
11:55 1008 29.77 837 24.72 9.5 49.2 31 -6.7 19.9
12:00 1008 29.77 837 24.72 9.7 49.4 31 -6.7 19.9
12:05 1007 29.74 837 24.72 9.6 49.3 33 -5.9 21.4
12:10 1007 29.74 837 24.72 9.5 49.1 33 -6 21.1
12:15 1007 29.74 837 24.72 9.6 49.4 32 -6.2 20.8
12:20 1007 29.74 837 24.72 9.6 49.3 33 -5.7 21.7
12:25 1007 29.74 837 24.72 9.6 49.3 33 -5.8 21.6
12:30 1007 29.74 837 24.72 9.9 49.9 31 -6.4 20.4
12:35 1007 29.74 837 24.72 9.9 49.8 33 -5.5 22.2
12:40 1007 29.74 836 24.69 10.1 50.1 32 -5.7 21.7
12:45 1007 29.74 837 24.72 10.1 50.2 31 -6.1 21
12:50 1007 29.74 837 24.72 10 50 31 -6.4 20.5
12:55 1007 29.74 836 24.69 10 50.1 30 -6.8 19.7
13:00 1007 29.74 836 24.69 10.6 51.1 30 -6.4 20.5
13:05 1007 29.74 836 24.69 11.3 52.3 30 -5.6 21.9
13:10 1007 29.74 836 24.69 11.9 53.4 32 -4.2 24.4
13:15 1007 29.74 836 24.69 12.5 54.5 30 -4.5 23.8
13:20 1007 29.74 836 24.69 13.1 55.6 28 -4.8 23.3
13:25 1007 29.74 836 24.69 13.9 56.9 29 -3.6 25.5
13:30 1006 29.71 836 24.69 13.6 56.4 28 -4.3 24.2
13:35 1006 29.71 835 24.66 13.8 56.8 28 -4.3 24.3
13:40 1006 29.71 835 24.66 13.9 57 28 -4.4 24.1
13:45 1006 29.71 835 24.66 13.7 56.6 28 -4.3 24.3
13:50 1006 29.71 835 24.66 13.3 55.9 30 -3.9 24.9
13:55 1006 29.71 835 24.66 12.7 54.9 31 -4 24.7
14:00 1006 29.71 835 24.66 12.5 54.5 32 -3.8 25.1
14:05 1006 29.71 835 24.66 12.4 54.4 30 -4.8 23.4
14:10 1006 29.71 835 24.66 12.6 54.6 29 -5 23.1
14:15 1006 29.71 835 24.66 12.8 55.1 29 -5 23.1
14:20 1006 29.71 835 24.66 12.8 55 29 -4.9 23.2
14:25 1006 29.71 835 24.66 12.3 54.2 29 -4.9 23.1
14:30 1006 29.71 835 24.66 12 53.6 31 -4.7 23.5
14:35 1006 29.71 835 24.66 11.8 53.2 32 -4.6 23.8
14:40 1005 29.68 835 24.66 11.8 53.3 32 -4.2 24.5
14:45 1005 29.68 834 24.63 11.6 52.8 32 -4.4 24
14:50 1005 29.68 834 24.63 12 53.6 30 -4.9 23.2
14:55 1005 29.68 834 24.63 12.3 54.1 32 -4.1 24.7
15:00 1005 29.68 834 24.63 11.9 53.4 32 -4.2 24.5
15:05 1005 29.68 834 24.63 12 53.6 31 -4.4 24.1
15:10 1005 29.68 834 24.63 12.4 54.3 30 -4.5 24
15:15 1005 29.68 834 24.63 13.2 55.7 29 -4.4 24.2
15:20 1005 29.68 834 24.63 13.5 56.3 30 -3.8 25.2
15:25 1005 29.68 834 24.63 13 55.5 30 -4 24.8
15:30 1005 29.68 834 24.63 12.9 55.3 30 -4.3 24.2
15:35 1004 29.65 834 24.63 13.5 56.3 29 -3.9 24.9
15:40 1004 29.65 834 24.63 13.7 56.6 30 -3.5 25.7
15:45 1004 29.65 834 24.63 13 55.4 31 -3.9 25
15:50 1004 29.65 834 24.63 12.6 54.6 31 -4.1 24.6
15:55 1004 29.65 833 24.6 12.4 54.2 33 -3.6 25.5
16:00 1004 29.65 833 24.6 12 53.6 33 -3.6 25.5
16:05 1004 29.65 833 24.6 12.1 53.7 32 -4.3 24.3
16:10 1004 29.65 833 24.6 12.4 54.2 31 -4.4 24
16:15 1004 29.65 833 24.6 12.6 54.6 30 -4.7 23.6
16:20 1004 29.65 833 24.6 12.7 54.8 30 -4.4 24.1
16:25 1004 29.65 833 24.6 12.7 54.9 31 -3.9 25
16:30 1004 29.65 834 24.63 12.7 54.8 31 -3.8 25.1
16:35 1004 29.65 834 24.63 12.4 54.2 31 -4.2 24.4
16:40 1005 29.68 834 24.63 12.1 53.8 32 -3.9 25
16:45 1005 29.68 834 24.63 11.3 52.4 35 -3.7 25.4
16:50 1005 29.68 834 24.63 11 51.9 35 -3.9 25
16:55 1005 29.68 834 24.63 11 51.8 35 -3.9 25
17:00 1005 29.68 834 24.63 10.7 51.3 37 -3.5 25.8
17:05 1005 29.68 834 24.63 10.5 50.8 38 -3.3 26.1
17:10 1004 29.65 834 24.63 10.4 50.7 38 -3.2 26.2
17:15 1004 29.65 834 24.63 10.3 50.6 38 -3.4 25.8
17:20 1005 29.68 834 24.63 10.2 50.4 39 -3.1 26.5
17:25 1005 29.68 834 24.63 10.2 50.4 39 -3.1 26.5
17:30 1005 29.68 834 24.63 10.3 50.5 40 -2.8 26.9
17:35 1005 29.68 834 24.63 10.2 50.4 41 -2.5 27.5
17:40 1005 29.68 834 24.63 10 49.9 41 -2.6 27.2
17:45 1005 29.68 834 24.63 10 49.9 43 -2.1 28.2
17:50 1005 29.68 834 24.63 9.5 49.1 45 -1.9 28.6
17:55 1005 29.68 834 24.63 9.1 48.4 46 -1.8 28.7
18:00 1005 29.68 834 24.63 8.8 47.9 47 -1.8 28.8
18:05 1005 29.68 834 24.63 8.8 47.9 48 -1.4 29.4
18:10 1005 29.68 834 24.63 8.6 47.5 49 -1.5 29.2
18:15 1005 29.68 834 24.63 8.5 47.3 50 -1.3 29.7
18:20 1005 29.68 834 24.63 8.2 46.7 51 -1.3 29.7
18:25 1005 29.68 834 24.63 8.4 47.1 50 -1.5 29.3
18:30 1005 29.68 834 24.63 8.4 47.2 49 -1.5 29.3
18:35 1005 29.68 834 24.63 8.8 47.8 49 -1.4 29.5
18:40 1005 29.68 834 24.63 8.4 47.2 51 -1.1 30
18:45 1005 29.68 834 24.63 8.2 46.7 50 -1.6 29.2
18:50 1005 29.68 834 24.63 8.3 46.9 50 -1.4 29.5
18:55 1005 29.68 834 24.63 8.2 46.7 51 -1.3 29.6
19:00 1005 29.68 834 24.63 8 46.3 52 -1.2 29.8
19:05 1005 29.68 834 24.63 7.7 45.9 52 -1.4 29.4
19:10 1005 29.68 834 24.63 7.6 45.7 54 -1.1 29.9
19:15 1005 29.68 834 24.63 7.3 45.2 55 -1 30.2
19:20 1005 29.68 834 24.63 7.3 45.1 55 -1 30.1
19:25 1005 29.68 834 24.63 7.2 44.9 56 -1 30.2
19:30 1005 29.68 834 24.63 7.2 44.9 55 -1.2 29.9
19:35 1004 29.65 834 24.63 7.5 45.4 47 -3.1 26.4
19:40 1004 29.65 833 24.6 8.1 46.6 43 -3.6 25.6
19:45 1004 29.65 833 24.6 8.4 47 42 -3.6 25.4
19:50 1004 29.65 833 24.6 8.6 47.5 42 -3.6 25.5
19:55 1004 29.65 833 24.6 8.7 47.6 41 -3.7 25.4
20:00 1004 29.65 833 24.6 8.4 47.1 41 -4 24.7
20:05 1004 29.65 833 24.6 8.4 47 44 -3.2 26.2
20:10 1004 29.65 834 24.63 7.9 46.2 42 -4.2 24.5
20:15 1004 29.65 834 24.63 8.1 46.7 42 -4.1 24.6
20:20 1005 29.68 834 24.63 8.2 46.7 41 -4.2 24.5
20:25 1005 29.68 834 24.63 8 46.5 42 -4.2 24.4
20:30 1005 29.68 834 24.63 8 46.4 42 -4.3 24.3
20:35 1005 29.68 834 24.63 7.9 46.1 43 -4.1 24.7
20:40 1005 29.68 834 24.63 7.7 45.8 42 -4.5 24
20:45 1005 29.68 834 24.63 7.7 45.9 43 -4 24.8
20:50 1005 29.68 834 24.63 7.5 45.6 43 -4.2 24.5
20:55 1004 29.65 834 24.63 7.7 45.8 40 -5.2 22.7
21:00 1004 29.65 834 24.63 7.7 45.9 41 -4.9 23.3
21:05 1004 29.65 834 24.63 7.8 46 39 -5.3 22.4
21:10 1004 29.65 833 24.6 7.8 46 39 -5.2 22.7
21:15 1004 29.65 833 24.6 7.7 45.8 40 -4.9 23.1
21:20 1004 29.65 833 24.6 7.7 45.8 41 -4.8 23.3
21:25 1004 29.65 833 24.6 7.5 45.4 42 -4.6 23.7
21:30 1004 29.65 833 24.6 7.5 45.5 40 -5.1 22.9
21:35 1004 29.65 833 24.6 7.8 46 40 -5 23
21:40 1004 29.65 833 24.6 7.9 46.3 39 -5.1 22.8
21:45 1004 29.65 833 24.6 7.9 46.3 40 -4.7 23.5
21:50 1004 29.65 833 24.6 7.6 45.8 41 -4.7 23.5
21:55 1004 29.65 833 24.6 7.4 45.4 42 -4.6 23.8
22:00 1004 29.65 833 24.6 7.4 45.3 41 -5 23
22:05 1004 29.65 834 24.63 7.5 45.5 41 -5 23
22:10 1004 29.65 834 24.63 7.6 45.7 41 -4.7 23.6
22:15 1004 29.65 834 24.63 7.6 45.8 38 -5.7 21.8
22:20 1004 29.65 834 24.63 7.9 46.2 39 -5.4 22.3
22:25 1005 29.68 834 24.63 7.8 46 40 -5 23.1
22:30 1005 29.68 834 24.63 7.5 45.5 42 -4.5 23.9
22:35 1005 29.68 834 24.63 7.1 44.8 45 -4.1 24.7
22:40 1005 29.68 834 24.63 6.7 44 46 -4 24.8
22:45 1005 29.68 834 24.63 6.5 43.8 46 -4.1 24.6
22:50 1005 29.68 834 24.63 6.5 43.7 47 -3.9 24.9
22:55 1005 29.68 834 24.63 6.4 43.6 47 -4 24.8
23:00 1005 29.68 834 24.63 6.3 43.4 47 -4 24.7
23:05 1005 29.68 834 24.63 6.5 43.7 47 -4.1 24.6
23:10 1005 29.68 835 24.66 6.4 43.6 48 -3.6 25.4
23:15 1006 29.71 835 24.66 6 42.8 54 -2.5 27.5
23:20 1006 29.71 835 24.66 5.3 41.5 62 -1.3 29.6
23:25 1006 29.71 835 24.66 4.4 40 68 -1 30.2
23:30 1006 29.71 835 24.66 3.9 39 70 -1 30.1
23:35 1006 29.71 836 24.69 3.5 38.4 76 -0.4 31.3
23:40 1006 29.71 836 24.69 2.7 36.9 75 -1.3 29.7
23:45 1006 29.71 836 24.69 2.7 36.9 74 -1.5 29.2
23:50 1006 29.71 835 24.66 3 37.4 73 -1.3 29.6
23:55 1006 29.71 835 24.66 3.1 37.6 71 -1.6 29.2
24:00 1006 29.71 835 24.66 3.4 38.1 73 -1 30.2